Terminal Aerodrome Forecast
Issued by NWS

Home | Current Version | Previous Version | Graphics & Text | Print | Product List | Glossary On
Versions: 1 2 3 4 5 6 7 8 9 10 11 12 13 14 15 16 17 18 19 20 21 22 23 24 25 26 27
000
FTUS43 KFGF 230520
TAFBJI
TAF
KBJI 230520Z 2306/2406 02009KT P6SM -SN BKN015 OVC025
      TEMPO 2306/2310 3SM -SN OVC010
     FM231300 05008KT 5SM -SN BR OVC015
     FM231800 08009KT P6SM BKN020 OVC025=

USA.gov is the U.S. government's official web portal to all federal, state and local government web resources and services.